Time;durP1;ratioP1;P1;durP2;ratioP2;P2;SDS_P1;SDS_P2;PMS_P1;PMS_P2;Temp;Humidity;BMP_temperature;BMP_pressure;BME280_temperature;BME280_humidity;BME280_pressure;Samples;Min_cycle;Max_cycle;Signal;HPM_P1;HPM_P2
2023/01/02 00:02:52;;;;;;;24.20;13.00;;;;;;;13.09;84.15;100732.61;652149;1291;140626;-81
2023/01/02 00:17:55;;;;;;;21.90;10.40;;;;;;;13.20;84.06;100738.46;652870;1300;139077;-80
2023/01/02 00:32:58;;;;;;;20.00;10.90;;;;;;;13.02;85.21;100748.69;653318;1311;139911;-82
2023/01/02 00:48:01;;;;;;;15.40;8.80;;;;;;;12.75;86.59;100734.77;652051;1298;138745;-82
2023/01/02 01:03:05;;;;;;;16.90;9.00;;;;;;;12.67;87.29;100734.13;653511;1301;139900;-82
2023/01/02 01:18:08;;;;;;;19.90;9.70;;;;;;;12.66;87.69;100738.53;650092;1310;140430;-81
2023/01/02 01:33:12;;;;;;;21.00;11.20;;;;;;;12.63;88.71;100745.45;653965;1298;140138;-82
2023/01/02 01:48:16;;;;;;;23.80;10.80;;;;;;;12.59;89.12;100733.62;651533;1312;140666;-82
2023/01/02 02:03:23;;;;;;;31.30;15.00;;;;;;;12.56;89.88;100729.98;652768;1288;140283;-82
2023/01/02 02:18:26;;;;;;;25.50;12.80;;;;;;;12.59;90.72;100742.75;651970;1294;139287;-83
2023/01/02 02:33:42;;;;;;;30.40;13.70;;;;;;;12.47;92.02;100746.54;649730;1294;141170;-82
2023/01/02 02:49:06;;;;;;;25.30;12.80;;;;;;;12.47;93.07;100763.77;651888;1305;139663;-82
2023/01/02 03:04:18;;;;;;;25.00;13.50;;;;;;;12.47;93.62;100756.91;652005;1312;139058;-81
2023/01/02 03:19:53;;;;;;;32.20;12.70;;;;;;;12.52;94.04;100746.41;650652;1311;139198;-81
2023/01/02 03:35:02;;;;;;;26.90;15.00;;;;;;;12.56;94.56;100742.77;652870;1296;139401;-80
2023/01/02 03:50:08;;;;;;;;;;;;;;;12.41;96.06;100716.02;648290;1298;140002;-80
2023/01/02 04:05:25;;;;;;;30.20;15.10;;;;;;;12.29;97.59;100692.90;649740;1299;127022;-79
2023/01/02 04:20:33;;;;;;;37.20;17.00;;;;;;;12.14;98.17;100657.09;649065;1311;140744;-80
2023/01/02 04:35:36;;;;;;;31.80;17.20;;;;;;;12.19;98.78;100655.44;652913;1312;141112;-80
2023/01/02 04:50:39;;;;;;;310.20;114.20;;;;;;;12.26;98.97;100649.53;649099;1308;139424;-80
2023/01/02 05:05:43;;;;;;;492.60;142.90;;;;;;;12.29;99.21;100633.62;650749;1312;141275;-81
2023/01/02 05:20:46;;;;;;;101.30;31.70;;;;;;;12.27;99.65;100610.67;652832;1305;139944;-80
2023/01/02 05:35:49;;;;;;;88.10;36.40;;;;;;;12.23;99.76;100584.05;653719;1289;139251;-80
2023/01/02 05:50:53;;;;;;;133.30;48.50;;;;;;;12.08;100.00;100563.66;656549;1306;140497;-80
2023/01/02 06:05:56;;;;;;;63.20;25.90;;;;;;;11.98;100.00;100555.73;653768;1299;141249;-80
2023/01/02 06:21:03;;;;;;;41.20;18.80;;;;;;;11.79;100.00;100522.67;646893;1311;139643;-79
2023/01/02 06:36:11;;;;;;;34.60;16.10;;;;;;;11.73;100.00;100500.12;655010;1297;139823;-80
2023/01/02 06:51:17;;;;;;;35.50;16.60;;;;;;;11.63;100.00;100481.21;649051;1299;139584;-80
2023/01/02 07:06:20;;;;;;;34.80;17.70;;;;;;;11.56;100.00;100463.61;651020;1304;140448;-80
2023/01/02 07:21:25;;;;;;;31.10;16.70;;;;;;;11.55;100.00;100460.07;648910;1305;139215;-80
2023/01/02 07:36:28;;;;;;;39.60;23.20;;;;;;;11.57;100.00;100442.12;653310;1303;139006;-81
2023/01/02 07:51:32;;;;;;;39.20;20.90;;;;;;;11.49;100.00;100438.78;651287;1302;139267;-80
2023/01/02 08:06:38;;;;;;;33.30;18.00;;;;;;;11.44;100.00;100436.84;648984;1310;138848;-81
2023/01/02 08:21:41;;;;;;;33.10;17.50;;;;;;;11.60;100.00;100421.02;651077;1307;139473;-80
2023/01/02 08:36:46;;;;;;;29.80;16.30;;;;;;;11.85;100.00;100422.11;656207;1304;139509;-81
2023/01/02 08:51:49;;;;;;;30.30;15.20;;;;;;;12.15;100.00;100415.23;654122;1304;139185;-81
2023/01/02 09:06:53;;;;;;;30.90;14.60;;;;;;;12.42;100.00;100403.27;648800;1305;138901;-80
2023/01/02 09:21:56;;;;;;;25.90;12.90;;;;;;;12.48;99.61;100408.15;649732;1310;140888;-79
2023/01/02 09:36:59;;;;;;;25.20;14.00;;;;;;;12.53;98.64;100404.96;647783;1311;138844;-80
2023/01/02 09:52:06;;;;;;;30.00;17.50;;;;;;;12.66;98.07;100395.55;650901;1307;140617;-80
2023/01/02 10:07:19;;;;;;;30.60;14.80;;;;;;;12.80;96.45;100386.48;648618;1304;139697;-80
2023/01/02 10:22:37;;;;;;;21.60;11.40;;;;;;;13.22;95.35;100363.81;649851;1288;139641;-81
2023/01/02 10:37:41;;;;;;;20.00;10.60;;;;;;;13.40;93.19;100360.84;648668;1299;145819;-80
2023/01/02 10:53:04;;;;;;;16.20;10.40;;;;;;;13.31;92.17;100345.95;651849;1288;140342;-80
2023/01/02 11:08:14;;;;;;;18.10;10.50;;;;;;;13.48;91.62;100344.66;649121;1298;140036;-80
2023/01/02 11:23:24;;;;;;;19.40;10.50;;;;;;;13.81;90.15;100336.47;652498;1306;141034;-81
2023/01/02 11:38:41;;;;;;;19.70;9.90;;;;;;;13.99;87.71;100322.30;648644;1307;139294;-81
2023/01/02 11:53:46;;;;;;;21.20;10.10;;;;;;;14.22;86.41;100317.90;649530;1304;140061;-80
2023/01/02 12:09:21;;;;;;;16.20;9.00;;;;;;;14.34;85.77;100291.66;652659;1298;139412;-80
2023/01/02 12:24:37;;;;;;;15.70;8.60;;;;;;;14.32;86.03;100279.39;652379;1294;139895;-82
2023/01/02 12:39:57;;;;;;;17.10;8.50;;;;;;;14.33;85.53;100266.45;648601;1308;138820;-82
2023/01/02 12:55:17;;;;;;;15.80;9.20;;;;;;;14.31;86.24;100257.11;653166;1300;141013;-81
2023/01/02 13:10:25;;;;;;;17.50;8.50;;;;;;;14.39;86.11;100252.84;651746;1302;139354;-81
2023/01/02 13:25:30;;;;;;;54.70;28.30;;;;;;;14.45;85.65;100251.61;651433;1312;140384;-81
2023/01/02 13:40:34;;;;;;;22.50;10.40;;;;;;;14.39;85.65;100271.62;655931;1308;139751;-82
2023/01/02 13:55:40;;;;;;;17.80;10.80;;;;;;;14.39;86.98;100213.04;649872;1311;139966;-81
2023/01/02 14:10:45;;;;;;;21.50;12.40;;;;;;;14.24;87.85;100230.68;647478;1304;138246;-82
2023/01/02 14:25:49;;;;;;;165.00;84.20;;;;;;;14.26;87.85;100215.61;645576;1302;140209;-81
2023/01/02 14:43:28;;;;;;;43.10;22.40;;;;;;;14.26;88.15;100202.62;648445;1305;139539;-82
2023/01/02 14:56:20;;;;;;;27.70;20.20;;;;;;;14.25;88.22;100226.00;649323;1308;139590;-81
2023/01/02 15:26:47;;;;;;;20.00;10.70;;;;;;;14.16;88.32;100236.35;651438;1311;139760;-83
2023/01/02 15:41:57;;;;;;;19.30;11.70;;;;;;;14.18;87.73;100248.86;650053;1307;141210;-81
2023/01/02 15:57:54;;;;;;;20.90;11.20;;;;;;;14.10;88.05;100246.48;629867;1346;545059;-81
2023/01/02 16:14:17;;;;;;;23.20;12.50;;;;;;;13.98;88.39;100236.59;641778;1320;138549;-81
2023/01/02 16:28:28;;;;;;;24.30;14.10;;;;;;;13.99;88.23;100260.27;644165;1305;140261;-81
2023/01/02 16:43:44;;;;;;;21.50;11.10;;;;;;;14.08;87.40;100256.39;643061;1314;139899;-81
2023/01/02 16:58:48;;;;;;;22.50;16.10;;;;;;;14.07;87.03;100230.02;642233;1322;139003;-81
2023/01/02 17:13:51;;;;;;;25.10;12.10;;;;;;;14.21;85.96;100225.66;641323;1322;140411;-82
2023/01/02 17:28:55;;;;;;;41.70;20.30;;;;;;;14.35;84.87;100235.23;641924;1308;140330;-80
2023/01/02 17:43:58;;;;;;;23.20;12.50;;;;;;;14.30;85.24;100230.52;644212;1319;140342;-83
2023/01/02 17:59:05;;;;;;;21.20;12.10;;;;;;;14.32;84.60;100223.10;644849;1308;140863;-81
2023/01/02 18:14:17;;;;;;;23.30;12.80;;;;;;;14.17;85.22;100222.24;648248;1308;139680;-81
2023/01/02 18:29:22;;;;;;;33.80;17.00;;;;;;;14.20;85.57;100225.63;645228;1298;140657;-82
2023/01/02 18:44:27;;;;;;;27.90;12.20;;;;;;;14.14;86.29;100225.07;648423;1312;139826;-83
2023/01/02 18:59:32;;;;;;;15.30;8.20;;;;;;;14.15;86.86;100237.15;648702;1300;139094;-84
2023/01/02 19:14:40;;;;;;;18.10;9.50;;;;;;;14.17;87.04;100230.63;648552;1297;140453;-83
2023/01/02 19:35:58;;;;;;;16.70;10.00;;;;;;;14.27;86.52;100235.00;633852;1323;545036;-83
2023/01/02 19:51:01;;;;;;;23.70;10.20;;;;;;;14.34;85.39;100242.21;642822;1301;138918;-84
2023/01/02 20:06:05;;;;;;;18.10;9.30;;;;;;;14.36;84.52;100243.21;647815;1314;138942;-83
2023/01/02 20:21:15;;;;;;;21.50;10.50;;;;;;;14.46;84.15;100244.39;655158;1296;140399;-84
2023/01/02 20:36:19;;;;;;;19.80;10.00;;;;;;;14.47;83.72;100238.74;652133;1300;138238;-84
2023/01/02 20:51:23;;;;;;;14.20;7.90;;;;;;;14.25;84.35;100249.48;653599;1298;140181;-83
2023/01/02 21:06:31;;;;;;;22.50;8.90;;;;;;;14.25;84.81;100254.27;654388;1298;139709;-82
2023/01/02 21:21:35;;;;;;;14.50;7.60;;;;;;;14.19;84.64;100265.79;654333;1282;139925;-84
2023/01/02 21:36:38;;;;;;;13.40;7.90;;;;;;;14.20;84.50;100263.96;652176;1301;138750;-82
2023/01/02 21:51:42;;;;;;;20.40;8.30;;;;;;;14.07;84.34;100278.13;651722;1300;140393;-83
2023/01/02 22:06:46;;;;;;;20.00;9.40;;;;;;;13.91;85.00;100296.28;653509;1295;139230;-81
2023/01/02 22:22:10;;;;;;;18.90;9.60;;;;;;;13.79;86.05;100319.58;652428;1297;139323;-84
2023/01/02 22:37:15;;;;;;;18.30;9.40;;;;;;;13.73;86.42;100343.92;650306;1300;138687;-81
2023/01/02 22:52:25;;;;;;;23.50;10.70;;;;;;;13.57;87.91;100362.23;651698;1285;138783;-83
2023/01/02 23:07:28;;;;;;;44.80;23.30;;;;;;;13.25;90.26;100363.55;651024;1303;139419;-83
2023/01/02 23:22:31;;;;;;;80.90;34.00;;;;;;;13.21;89.75;100382.88;651885;1297;139323;-83
2023/01/02 23:37:35;;;;;;;8.70;4.50;;;;;;;13.30;88.39;100412.63;651762;1305;140289;-83
2023/01/02 23:52:38;;;;;;;4.10;1.40;;;;;;;13.00;89.85;100451.45;654314;1310;138817;-83
